sensor_id;sensor_type;location;lat;lon;timestamp;pressure;altitude;pressure_sealevel;temperature;humidity
43683;BME280;29285;52.128;21.060;2022-12-18T00:01:36;101665.48;;;-3.71;82.83
43683;BME280;29285;52.128;21.060;2022-12-18T00:06:38;101675.66;;;-3.71;82.86
43683;BME280;29285;52.128;21.060;2022-12-18T00:11:39;101681.84;;;-3.67;82.87
43683;BME280;29285;52.128;21.060;2022-12-18T00:16:43;101687.22;;;-3.63;82.95
43683;BME280;29285;52.128;21.060;2022-12-18T00:21:45;101692.89;;;-3.67;82.87
43683;BME280;29285;52.128;21.060;2022-12-18T00:26:46;101698.08;;;-3.65;82.88
43683;BME280;29285;52.128;21.060;2022-12-18T00:31:48;101700.04;;;-3.68;82.84
43683;BME280;29285;52.128;21.060;2022-12-18T00:36:49;101700.52;;;-3.67;82.84
43683;BME280;29285;52.128;21.060;2022-12-18T00:41:50;101707.78;;;-3.66;82.88
43683;BME280;29285;52.128;21.060;2022-12-18T00:47:10;101710.91;;;-3.57;82.95
43683;BME280;29285;52.128;21.060;2022-12-18T00:52:11;101721.86;;;-3.51;83.04
43683;BME280;29285;52.128;21.060;2022-12-18T00:57:13;101721.07;;;-3.50;83.09
43683;BME280;29285;52.128;21.060;2022-12-18T01:02:14;101731.67;;;-3.44;83.17
43683;BME280;29285;52.128;21.060;2022-12-18T01:07:15;101741.23;;;-3.40;83.23
43683;BME280;29285;52.128;21.060;2022-12-18T01:12:17;101738.89;;;-3.43;83.22
43683;BME280;29285;52.128;21.060;2022-12-18T01:17:19;101750.66;;;-3.39;83.25
43683;BME280;29285;52.128;21.060;2022-12-18T01:22:20;101748.09;;;-3.32;83.31
43683;BME280;29285;52.128;21.060;2022-12-18T01:27:22;101756.63;;;-3.25;83.35
43683;BME280;29285;52.128;21.060;2022-12-18T01:32:23;101764.47;;;-3.22;83.43
43683;BME280;29285;52.128;21.060;2022-12-18T01:37:24;101769.63;;;-3.20;83.44
43683;BME280;29285;52.128;21.060;2022-12-18T01:42:26;101779.44;;;-3.26;83.38
43683;BME280;29285;52.128;21.060;2022-12-18T01:53:11;101796.88;;;-3.39;83.24
43683;BME280;29285;52.128;21.060;2022-12-18T01:58:16;101792.06;;;-3.35;83.27
43683;BME280;29285;52.128;21.060;2022-12-18T02:03:18;101791.78;;;-3.33;83.30
43683;BME280;29285;52.128;21.060;2022-12-18T02:08:30;101801.58;;;-3.39;83.26
43683;BME280;29285;52.128;21.060;2022-12-18T02:18:41;101824.38;;;-3.47;83.19
43683;BME280;29285;52.128;21.060;2022-12-18T02:24:12;101827.13;;;-3.44;83.21
43683;BME280;29285;52.128;21.060;2022-12-18T02:29:12;101832.89;;;-3.40;83.25
43683;BME280;29285;52.128;21.060;2022-12-18T02:34:18;101845.74;;;-3.32;83.32
43683;BME280;29285;52.128;21.060;2022-12-18T02:39:21;101851.44;;;-3.22;83.42
43683;BME280;29285;52.128;21.060;2022-12-18T02:44:25;101854.37;;;-3.16;83.49
43683;BME280;29285;52.128;21.060;2022-12-18T03:06:04;101877.11;;;-3.06;83.53
43683;BME280;29285;52.128;21.060;2022-12-18T03:11:23;101888.30;;;-3.03;83.53
43683;BME280;29285;52.128;21.060;2022-12-18T03:16:28;101895.42;;;-3.04;83.51
43683;BME280;29285;52.128;21.060;2022-12-18T03:21:37;101900.73;;;-3.01;83.52
43683;BME280;29285;52.128;21.060;2022-12-18T03:26:44;101899.45;;;-3.01;83.52
43683;BME280;29285;52.128;21.060;2022-12-18T03:31:51;101910.23;;;-2.99;83.50
43683;BME280;29285;52.128;21.060;2022-12-18T03:36:54;101920.42;;;-2.99;83.49
43683;BME280;29285;52.128;21.060;2022-12-18T03:42:00;101935.82;;;-2.97;83.48
43683;BME280;29285;52.128;21.060;2022-12-18T03:57:31;101941.67;;;-3.12;83.24
43683;BME280;29285;52.128;21.060;2022-12-18T04:02:34;101942.14;;;-3.17;83.18
43683;BME280;29285;52.128;21.060;2022-12-18T04:07:38;101960.95;;;-3.22;83.11
43683;BME280;29285;52.128;21.060;2022-12-18T04:12:39;101959.22;;;-3.16;83.11
43683;BME280;29285;52.128;21.060;2022-12-18T04:17:49;101976.63;;;-3.16;83.12
43683;BME280;29285;52.128;21.060;2022-12-18T04:22:50;101978.39;;;-3.15;83.13
43683;BME280;29285;52.128;21.060;2022-12-18T04:27:52;101979.27;;;-3.21;83.06
43683;BME280;29285;52.128;21.060;2022-12-18T04:32:53;101989.45;;;-3.21;83.04
43683;BME280;29285;52.128;21.060;2022-12-18T04:37:54;101990.16;;;-3.17;83.04
43683;BME280;29285;52.128;21.060;2022-12-18T04:42:56;102004.38;;;-3.14;83.05
43683;BME280;29285;52.128;21.060;2022-12-18T04:47:58;102013.19;;;-3.15;83.01
43683;BME280;29285;52.128;21.060;2022-12-18T04:53:00;102020.53;;;-3.13;83.02
43683;BME280;29285;52.128;21.060;2022-12-18T04:58:01;102026.19;;;-3.24;82.92
43683;BME280;29285;52.128;21.060;2022-12-18T05:03:02;102029.91;;;-3.26;82.87
43683;BME280;29285;52.128;21.060;2022-12-18T05:08:04;102033.87;;;-3.29;82.78
43683;BME280;29285;52.128;21.060;2022-12-18T05:13:06;102044.73;;;-3.39;82.72
43683;BME280;29285;52.128;21.060;2022-12-18T05:18:08;102061.06;;;-3.42;82.60
43683;BME280;29285;52.128;21.060;2022-12-18T05:23:09;102069.53;;;-3.36;82.62
43683;BME280;29285;52.128;21.060;2022-12-18T05:28:11;102075.97;;;-3.35;82.62
43683;BME280;29285;52.128;21.060;2022-12-18T05:33:12;102074.20;;;-3.36;82.58
43683;BME280;29285;52.128;21.060;2022-12-18T05:38:13;102082.48;;;-3.45;82.50
43683;BME280;29285;52.128;21.060;2022-12-18T05:43:14;102090.00;;;-3.53;82.40
43683;BME280;29285;52.128;21.060;2022-12-18T05:48:16;102094.19;;;-3.54;82.36
43683;BME280;29285;52.128;21.060;2022-12-18T05:53:20;102085.09;;;-3.50;82.36
43683;BME280;29285;52.128;21.060;2022-12-18T05:58:21;102093.94;;;-3.45;82.44
43683;BME280;29285;52.128;21.060;2022-12-18T06:03:22;102092.66;;;-3.45;82.47
43683;BME280;29285;52.128;21.060;2022-12-18T06:08:24;102099.70;;;-3.48;82.46
43683;BME280;29285;52.128;21.060;2022-12-18T06:13:25;102114.59;;;-3.47;82.49
43683;BME280;29285;52.128;21.060;2022-12-18T06:18:26;102141.27;;;-3.42;82.53
43683;BME280;29285;52.128;21.060;2022-12-18T06:23:27;102140.73;;;-3.50;82.56
43683;BME280;29285;52.128;21.060;2022-12-18T06:28:29;102153.14;;;-3.54;82.54
43683;BME280;29285;52.128;21.060;2022-12-18T06:33:30;102170.18;;;-3.53;82.55
43683;BME280;29285;52.128;21.060;2022-12-18T06:38:33;102177.59;;;-3.56;82.55
43683;BME280;29285;52.128;21.060;2022-12-18T06:43:35;102185.08;;;-3.65;82.53
43683;BME280;29285;52.128;21.060;2022-12-18T06:48:37;102191.59;;;-3.68;82.50
43683;BME280;29285;52.128;21.060;2022-12-18T06:53:39;102202.12;;;-3.64;82.57
43683;BME280;29285;52.128;21.060;2022-12-18T06:58:40;102212.06;;;-3.67;82.61
43683;BME280;29285;52.128;21.060;2022-12-18T07:03:41;102219.47;;;-3.70;82.61
43683;BME280;29285;52.128;21.060;2022-12-18T07:08:43;102227.08;;;-3.65;82.69
43683;BME280;29285;52.128;21.060;2022-12-18T07:13:46;102244.28;;;-3.67;82.72
43683;BME280;29285;52.128;21.060;2022-12-18T07:18:47;102238.35;;;-3.73;82.69
43683;BME280;29285;52.128;21.060;2022-12-18T07:23:49;102250.59;;;-3.62;82.79
43683;BME280;29285;52.128;21.060;2022-12-18T07:28:56;102256.91;;;-3.57;82.88
43683;BME280;29285;52.128;21.060;2022-12-18T07:33:58;102265.09;;;-3.49;83.00
43683;BME280;29285;52.128;21.060;2022-12-18T07:38:59;102265.48;;;-3.38;83.14
43683;BME280;29285;52.128;21.060;2022-12-18T07:44:00;102262.64;;;-3.36;83.18
43683;BME280;29285;52.128;21.060;2022-12-18T07:49:01;102272.16;;;-3.33;83.21
43683;BME280;29285;52.128;21.060;2022-12-18T07:54:03;102282.47;;;-3.32;83.21
43683;BME280;29285;52.128;21.060;2022-12-18T07:59:05;102290.83;;;-3.27;83.24
43683;BME280;29285;52.128;21.060;2022-12-18T08:04:06;102296.11;;;-3.19;83.30
43683;BME280;29285;52.128;21.060;2022-12-18T08:09:09;102306.38;;;-3.06;83.36
43683;BME280;29285;52.128;21.060;2022-12-18T08:14:10;102316.13;;;-3.12;83.36
43683;BME280;29285;52.128;21.060;2022-12-18T08:19:12;102321.23;;;-3.12;83.32
43683;BME280;29285;52.128;21.060;2022-12-18T08:24:13;102330.38;;;-3.09;83.30
43683;BME280;29285;52.128;21.060;2022-12-18T08:29:14;102340.77;;;-3.06;83.33
43683;BME280;29285;52.128;21.060;2022-12-18T08:34:15;102344.04;;;-3.01;83.32
43683;BME280;29285;52.128;21.060;2022-12-18T08:39:16;102350.91;;;-3.00;83.33
43683;BME280;29285;52.128;21.060;2022-12-18T08:44:18;102356.44;;;-2.94;83.37
43683;BME280;29285;52.128;21.060;2022-12-18T08:49:21;102364.66;;;-3.10;83.22
43683;BME280;29285;52.128;21.060;2022-12-18T08:54:23;102357.45;;;-3.04;83.19
43683;BME280;29285;52.128;21.060;2022-12-18T08:59:28;102360.98;;;-2.90;83.30
43683;BME280;29285;52.128;21.060;2022-12-18T09:04:29;102366.30;;;-2.75;83.43
43683;BME280;29285;52.128;21.060;2022-12-18T09:09:30;102374.67;;;-2.71;83.48
43683;BME280;29285;52.128;21.060;2022-12-18T09:14:31;102380.87;;;-2.67;83.53
43683;BME280;29285;52.128;21.060;2022-12-18T09:19:33;102385.85;;;-2.69;83.48
43683;BME280;29285;52.128;21.060;2022-12-18T09:24:34;102389.56;;;-2.70;83.42
43683;BME280;29285;52.128;21.060;2022-12-18T09:29:35;102388.52;;;-2.79;83.28
43683;BME280;29285;52.128;21.060;2022-12-18T09:34:37;102396.48;;;-2.74;83.23
43683;BME280;29285;52.128;21.060;2022-12-18T09:39:38;102401.52;;;-2.69;83.23
43683;BME280;29285;52.128;21.060;2022-12-18T09:44:43;102406.23;;;-2.57;83.33
43683;BME280;29285;52.128;21.060;2022-12-18T09:49:50;102409.58;;;-2.39;83.43
43683;BME280;29285;52.128;21.060;2022-12-18T10:00:44;102403.94;;;-2.47;83.36
43683;BME280;29285;52.128;21.060;2022-12-18T10:27:44;102418.08;;;-2.45;83.07
43683;BME280;29285;52.128;21.060;2022-12-18T10:32:46;102430.17;;;-2.55;82.91
43683;BME280;29285;52.128;21.060;2022-12-18T10:38:23;102421.89;;;-2.76;82.68
43683;BME280;29285;52.128;21.060;2022-12-18T10:43:21;102424.98;;;-2.68;82.66
43683;BME280;29285;52.128;21.060;2022-12-18T10:48:25;102426.95;;;-2.64;82.67
43683;BME280;29285;52.128;21.060;2022-12-18T10:53:31;102428.28;;;-2.45;82.73
43683;BME280;29285;52.128;21.060;2022-12-18T10:58:36;102420.27;;;-2.57;82.60
43683;BME280;29285;52.128;21.060;2022-12-18T11:03:58;102422.09;;;-2.61;82.50
43683;BME280;29285;52.128;21.060;2022-12-18T11:09:03;102440.66;;;-2.81;82.35
43683;BME280;29285;52.128;21.060;2022-12-18T11:14:17;102440.64;;;-2.93;82.21
43683;BME280;29285;52.128;21.060;2022-12-18T11:24:38;102428.92;;;-2.78;82.33
43683;BME280;29285;52.128;21.060;2022-12-18T11:29:41;102431.84;;;-2.91;82.33
43683;BME280;29285;52.128;21.060;2022-12-18T11:34:49;102433.83;;;-2.99;82.25
43683;BME280;29285;52.128;21.060;2022-12-18T11:40:00;102437.28;;;-2.98;82.26
43683;BME280;29285;52.128;21.060;2022-12-18T11:45:23;102438.89;;;-2.82;82.43
43683;BME280;29285;52.128;21.060;2022-12-18T11:50:41;102438.37;;;-2.59;82.69
43683;BME280;29285;52.128;21.060;2022-12-18T11:55:58;102439.50;;;-2.43;82.93
43683;BME280;29285;52.128;21.060;2022-12-18T12:01:28;102455.66;;;-2.31;83.07
43683;BME280;29285;52.128;21.060;2022-12-18T12:39:26;102468.29;;;-1.64;83.27
43683;BME280;29285;52.128;21.060;2022-12-18T12:44:34;102471.34;;;-1.38;83.48
43683;BME280;29285;52.128;21.060;2022-12-18T12:49:38;102471.16;;;-1.34;83.50
43683;BME280;29285;52.128;21.060;2022-12-18T12:54:40;102474.63;;;-1.20;83.56
43683;BME280;29285;52.128;21.060;2022-12-18T13:05:33;102488.08;;;-1.23;83.41
43683;BME280;29285;52.128;21.060;2022-12-18T13:10:42;102511.14;;;-1.60;82.99
43683;BME280;29285;52.128;21.060;2022-12-18T13:16:07;102523.30;;;-1.63;82.77
43683;BME280;29285;52.128;21.060;2022-12-18T13:21:20;102523.67;;;-2.01;82.42
43683;BME280;29285;52.128;21.060;2022-12-18T13:36:44;102539.78;;;-2.90;81.44
43683;BME280;29285;52.128;21.060;2022-12-18T13:41:48;102531.31;;;-3.01;81.41
43683;BME280;29285;52.128;21.060;2022-12-18T13:47:31;102542.28;;;-3.02;81.47
43683;BME280;29285;52.128;21.060;2022-12-18T13:52:37;102550.22;;;-3.10;81.53
43683;BME280;29285;52.128;21.060;2022-12-18T13:57:39;102543.11;;;-3.09;81.62
43683;BME280;29285;52.128;21.060;2022-12-18T14:02:44;102549.23;;;-3.12;81.70
43683;BME280;29285;52.128;21.060;2022-12-18T14:07:46;102552.97;;;-3.01;81.87
43683;BME280;29285;52.128;21.060;2022-12-18T14:12:49;102559.96;;;-2.99;82.03
43683;BME280;29285;52.128;21.060;2022-12-18T14:18:21;102563.28;;;-2.83;82.23
43683;BME280;29285;52.128;21.060;2022-12-18T14:23:39;102568.30;;;-2.72;82.43
43683;BME280;29285;52.128;21.060;2022-12-18T14:28:44;102575.05;;;-2.90;82.37
43683;BME280;29285;52.128;21.060;2022-12-18T14:33:45;102576.72;;;-3.08;82.22
43683;BME280;29285;52.128;21.060;2022-12-18T14:38:53;102576.27;;;-3.14;82.14
43683;BME280;29285;52.128;21.060;2022-12-18T14:44:04;102581.33;;;-3.09;82.23
43683;BME280;29285;52.128;21.060;2022-12-18T14:54:30;102587.02;;;-3.23;82.20
43683;BME280;29285;52.128;21.060;2022-12-18T14:59:32;102591.57;;;-2.85;82.53
43683;BME280;29285;52.128;21.060;2022-12-18T15:04:36;102595.59;;;-2.59;82.90
43683;BME280;29285;52.128;21.060;2022-12-18T15:09:42;102600.00;;;-2.86;82.77
43683;BME280;29285;52.128;21.060;2022-12-18T15:14:47;102591.08;;;-2.86;82.69
43683;BME280;29285;52.128;21.060;2022-12-18T15:19:50;102600.32;;;-2.93;82.65
43683;BME280;29285;52.128;21.060;2022-12-18T15:24:54;102616.73;;;-2.89;82.60
43683;BME280;29285;52.128;21.060;2022-12-18T15:35:23;102609.94;;;-3.01;82.51
43683;BME280;29285;52.128;21.060;2022-12-18T15:40:25;102600.00;;;-2.86;82.62
43683;BME280;29285;52.128;21.060;2022-12-18T15:45:27;102621.17;;;-2.87;82.66
43683;BME280;29285;52.128;21.060;2022-12-18T15:50:29;102621.33;;;-2.73;82.80
43683;BME280;29285;52.128;21.060;2022-12-18T15:55:30;102621.95;;;-2.59;82.96
43683;BME280;29285;52.128;21.060;2022-12-18T16:00:50;102627.95;;;-2.75;82.87
43683;BME280;29285;52.128;21.060;2022-12-18T16:05:52;102632.19;;;-2.76;82.83
43683;BME280;29285;52.128;21.060;2022-12-18T16:10:54;102634.73;;;-2.93;82.66
43683;BME280;29285;52.128;21.060;2022-12-18T16:15:56;102642.97;;;-3.08;82.50
43683;BME280;29285;52.128;21.060;2022-12-18T16:20:58;102639.17;;;-3.13;82.41
43683;BME280;29285;52.128;21.060;2022-12-18T16:26:01;102643.19;;;-3.04;82.43
43683;BME280;29285;52.128;21.060;2022-12-18T16:31:02;102641.19;;;-2.86;82.62
43683;BME280;29285;52.128;21.060;2022-12-18T16:36:03;102628.78;;;-2.64;82.87
43683;BME280;29285;52.128;21.060;2022-12-18T16:41:15;102637.50;;;-2.56;83.02
43683;BME280;29285;52.128;21.060;2022-12-18T16:46:34;102635.31;;;-2.68;82.94
43683;BME280;29285;52.128;21.060;2022-12-18T16:51:36;102638.61;;;-2.69;82.91
43683;BME280;29285;52.128;21.060;2022-12-18T16:56:37;102646.35;;;-3.02;82.58
43683;BME280;29285;52.128;21.060;2022-12-18T17:01:39;102648.40;;;-3.25;82.28
43683;BME280;29285;52.128;21.060;2022-12-18T17:06:43;102649.00;;;-3.45;82.04
43683;BME280;29285;52.128;21.060;2022-12-18T17:11:45;102673.09;;;-3.47;82.00
43683;BME280;29285;52.128;21.060;2022-12-18T17:16:47;102676.47;;;-3.74;81.78
43683;BME280;29285;52.128;21.060;2022-12-18T17:21:49;102672.84;;;-3.98;81.62
43683;BME280;29285;52.128;21.060;2022-12-18T17:26:51;102682.45;;;-3.68;81.86
43683;BME280;29285;52.128;21.060;2022-12-18T17:31:53;102677.14;;;-3.43;82.20
43683;BME280;29285;52.128;21.060;2022-12-18T17:36:55;102674.95;;;-3.34;82.41
43683;BME280;29285;52.128;21.060;2022-12-18T17:41:56;102672.67;;;-3.41;82.43
43683;BME280;29285;52.128;21.060;2022-12-18T17:46:58;102676.48;;;-3.41;82.47
43683;BME280;29285;52.128;21.060;2022-12-18T17:51:59;102671.89;;;-3.40;82.50
43683;BME280;29285;52.128;21.060;2022-12-18T17:57:00;102675.83;;;-3.71;82.28
43683;BME280;29285;52.128;21.060;2022-12-18T18:02:01;102691.41;;;-3.89;82.08
43683;BME280;29285;52.128;21.060;2022-12-18T18:07:02;102707.97;;;-3.99;82.00
43683;BME280;29285;52.128;21.060;2022-12-18T18:12:04;102716.61;;;-4.13;81.92
43683;BME280;29285;52.128;21.060;2022-12-18T18:17:23;102708.36;;;-4.36;81.81
43683;BME280;29285;52.128;21.060;2022-12-18T18:22:25;102707.72;;;-4.33;81.85
43683;BME280;29285;52.128;21.060;2022-12-18T18:27:26;102696.91;;;-4.36;81.94
43683;BME280;29285;52.128;21.060;2022-12-18T18:32:27;102696.78;;;-4.48;81.95
43683;BME280;29285;52.128;21.060;2022-12-18T18:37:28;102700.31;;;-4.61;81.92
43683;BME280;29285;52.128;21.060;2022-12-18T18:42:30;102700.45;;;-4.39;82.16
43683;BME280;29285;52.128;21.060;2022-12-18T18:47:31;102707.98;;;-4.20;82.44
43683;BME280;29285;52.128;21.060;2022-12-18T18:52:32;102704.92;;;-4.00;82.75
43683;BME280;29285;52.128;21.060;2022-12-18T18:57:34;102714.34;;;-4.30;82.66
43683;BME280;29285;52.128;21.060;2022-12-18T19:02:35;102713.57;;;-4.24;82.67
43683;BME280;29285;52.128;21.060;2022-12-18T19:07:36;102694.61;;;-4.02;82.89
43683;BME280;29285;52.128;21.060;2022-12-18T19:12:37;102681.43;;;-3.75;83.19
43683;BME280;29285;52.128;21.060;2022-12-18T19:17:57;102703.70;;;-3.62;83.38
43683;BME280;29285;52.128;21.060;2022-12-18T19:22:58;102719.23;;;-3.75;83.33
43683;BME280;29285;52.128;21.060;2022-12-18T19:27:59;102708.05;;;-3.72;83.30
43683;BME280;29285;52.128;21.060;2022-12-18T19:33:00;102687.20;;;-3.93;83.18
43683;BME280;29285;52.128;21.060;2022-12-18T19:38:02;102702.89;;;-4.15;82.92
43683;BME280;29285;52.128;21.060;2022-12-18T19:43:03;102730.34;;;-4.31;82.74
43683;BME280;29285;52.128;21.060;2022-12-18T19:48:04;102729.59;;;-4.41;82.62
43683;BME280;29285;52.128;21.060;2022-12-18T19:53:06;102738.84;;;-4.52;82.56
43683;BME280;29285;52.128;21.060;2022-12-18T19:58:08;102737.30;;;-4.60;82.50
43683;BME280;29285;52.128;21.060;2022-12-18T20:03:09;102724.50;;;-4.46;82.65
43683;BME280;29285;52.128;21.060;2022-12-18T20:08:10;102722.34;;;-4.15;82.97
43683;BME280;29285;52.128;21.060;2022-12-18T20:13:11;102724.11;;;-4.14;83.10
43683;BME280;29285;52.128;21.060;2022-12-18T20:18:14;102726.16;;;-4.31;83.02
43683;BME280;29285;52.128;21.060;2022-12-18T20:23:15;102719.16;;;-4.39;82.95
43683;BME280;29285;52.128;21.060;2022-12-18T20:28:18;102723.74;;;-4.19;83.11
43683;BME280;29285;52.128;21.060;2022-12-18T20:33:19;102724.24;;;-4.13;83.24
43683;BME280;29285;52.128;21.060;2022-12-18T20:38:20;102716.88;;;-3.99;83.41
43683;BME280;29285;52.128;21.060;2022-12-18T20:43:22;102716.59;;;-3.92;83.50
43683;BME280;29285;52.128;21.060;2022-12-18T20:48:23;102720.80;;;-3.87;83.53
43683;BME280;29285;52.128;21.060;2022-12-18T20:53:24;102720.64;;;-3.73;83.67
43683;BME280;29285;52.128;21.060;2022-12-18T20:58:25;102734.89;;;-3.80;83.62
43683;BME280;29285;52.128;21.060;2022-12-18T21:03:26;102752.86;;;-4.05;83.39
43683;BME280;29285;52.128;21.060;2022-12-18T21:08:27;102748.53;;;-4.37;83.05
43683;BME280;29285;52.128;21.060;2022-12-18T21:13:28;102760.06;;;-4.51;82.86
43683;BME280;29285;52.128;21.060;2022-12-18T21:18:30;102762.06;;;-4.68;82.70
43683;BME280;29285;52.128;21.060;2022-12-18T21:23:31;102762.06;;;-4.68;82.71
43683;BME280;29285;52.128;21.060;2022-12-18T21:28:35;102757.06;;;-4.87;82.61
43683;BME280;29285;52.128;21.060;2022-12-18T21:33:36;102760.00;;;-4.77;82.69
43683;BME280;29285;52.128;21.060;2022-12-18T21:38:37;102735.36;;;-4.78;82.77
43683;BME280;29285;52.128;21.060;2022-12-18T21:43:38;102735.37;;;-4.73;82.86
43683;BME280;29285;52.128;21.060;2022-12-18T21:48:58;102728.81;;;-4.55;83.04
43683;BME280;29285;52.128;21.060;2022-12-18T21:53:59;102725.52;;;-4.28;83.37
43683;BME280;29285;52.128;21.060;2022-12-18T21:59:01;102701.36;;;-4.44;83.31
43683;BME280;29285;52.128;21.060;2022-12-18T22:04:02;102684.46;;;-4.28;83.46
43683;BME280;29285;52.128;21.060;2022-12-18T22:09:04;102680.49;;;-4.08;83.63
43683;BME280;29285;52.128;21.060;2022-12-18T22:14:07;102664.95;;;-4.01;83.71
43683;BME280;29285;52.128;21.060;2022-12-18T22:19:09;102653.45;;;-3.80;83.87
43683;BME280;29285;52.128;21.060;2022-12-18T22:29:22;102637.81;;;-3.47;84.18
43683;BME280;29285;52.128;21.060;2022-12-18T22:34:42;102648.06;;;-3.63;84.05
43683;BME280;29285;52.128;21.060;2022-12-18T22:39:43;102645.27;;;-4.19;83.54
43683;BME280;29285;52.128;21.060;2022-12-18T22:44:45;102652.42;;;-4.52;83.10
43683;BME280;29285;52.128;21.060;2022-12-18T22:49:46;102651.98;;;-4.98;82.64
43683;BME280;29285;52.128;21.060;2022-12-18T22:54:47;102651.59;;;-5.08;82.43
43683;BME280;29285;52.128;21.060;2022-12-18T22:59:49;102641.30;;;-5.09;82.37
43683;BME280;29285;52.128;21.060;2022-12-18T23:04:50;102636.87;;;-5.01;82.44
43683;BME280;29285;52.128;21.060;2022-12-18T23:09:52;102652.02;;;-4.77;82.63
43683;BME280;29285;52.128;21.060;2022-12-18T23:14:54;102657.63;;;-4.81;82.67
43683;BME280;29285;52.128;21.060;2022-12-18T23:19:55;102645.91;;;-4.89;82.64
43683;BME280;29285;52.128;21.060;2022-12-18T23:24:56;102652.27;;;-4.89;82.59
43683;BME280;29285;52.128;21.060;2022-12-18T23:29:57;102642.85;;;-5.01;82.55
43683;BME280;29285;52.128;21.060;2022-12-18T23:34:58;102634.58;;;-5.09;82.46
43683;BME280;29285;52.128;21.060;2022-12-18T23:39:59;102633.67;;;-5.14;82.45
43683;BME280;29285;52.128;21.060;2022-12-18T23:45:01;102631.15;;;-5.04;82.50
43683;BME280;29285;52.128;21.060;2022-12-18T23:50:02;102628.14;;;-4.79;82.73
43683;BME280;29285;52.128;21.060;2022-12-18T23:55:05;102621.02;;;-4.57;82.95
